Time;durP1;ratioP1;P1;durP2;ratioP2;P2;SDS_P1;SDS_P2;PMS_P1;PMS_P2;Temp;Humidity;BMP_temperature;BMP_pressure;BME280_temperature;BME280_humidity;BME280_pressure;Samples;Min_cycle;Max_cycle;Signal;HPM_P1;HPM_P2
2023/03/24 00:02:07;;;;;;;29.23;27.83;;;;;;;17.51;56.61;99705.84;5034353;28;20376;-83
2023/03/24 00:04:33;;;;;;;30.13;28.67;;;;;;;17.50;56.61;99701.53;5034730;28;20493;-84
2023/03/24 00:07:02;;;;;;;30.30;28.70;;;;;;;17.52;56.49;99699.28;5034236;28;20425;-84
2023/03/24 00:09:31;;;;;;;27.83;26.42;;;;;;;17.50;56.55;99696.06;5034211;28;20409;-81
2023/03/24 00:11:56;;;;;;;30.42;28.42;;;;;;;17.49;56.58;99699.94;5034169;28;20030;-82
2023/03/24 00:14:22;;;;;;;29.42;28.02;;;;;;;17.48;56.84;99698.31;5033790;28;20439;-84
2023/03/24 00:16:49;;;;;;;28.25;26.73;;;;;;;17.46;57.06;99686.88;5033740;28;20029;-81
2023/03/24 00:19:15;;;;;;;29.45;28.05;;;;;;;17.46;57.03;99687.72;5033765;28;20385;-83
2023/03/24 00:21:42;;;;;;;30.08;28.50;;;;;;;17.46;56.67;99690.44;5034106;28;20030;-82
2023/03/24 00:24:10;;;;;;;31.05;29.45;;;;;;;17.45;56.66;99688.81;5035861;28;20037;-82
2023/03/24 00:26:37;;;;;;;28.50;26.52;;;;;;;17.41;57.11;99682.38;5037556;28;20041;-80
2023/03/24 00:29:04;;;;;;;31.80;29.98;;;;;;;17.40;57.03;99680.75;5034658;28;20060;-81
2023/03/24 00:31:30;;;;;;;28.33;26.85;;;;;;;17.36;57.41;99668.06;5034183;28;20064;-82
2023/03/24 00:33:55;;;;;;;28.17;26.75;;;;;;;17.36;57.16;99660.69;5034644;28;20029;-83
2023/03/24 00:36:24;;;;;;;28.58;27.08;;;;;;;17.39;57.15;99659.25;5033931;28;20436;-83
2023/03/24 00:38:50;;;;;;;28.05;26.40;;;;;;;17.38;56.75;99647.50;5033791;28;20086;-81
2023/03/24 00:41:16;;;;;;;28.50;27.10;;;;;;;17.34;57.00;99652.00;5016605;28;20061;-85
2023/03/24 00:43:42;;;;;;;29.30;27.80;;;;;;;17.34;56.91;99645.72;5034326;28;20068;-82
2023/03/24 00:46:11;;;;;;;30.33;28.83;;;;;;;17.34;56.98;99640.25;5034538;28;20064;-85
2023/03/24 00:48:37;;;;;;;29.50;28.00;;;;;;;17.32;57.03;99642.53;5034561;28;20096;-83
2023/03/24 00:51:09;;;;;;;30.40;28.73;;;;;;;17.30;56.94;99634.63;5033950;28;20037;-82
2023/03/24 00:53:36;;;;;;;28.08;26.67;;;;;;;17.32;56.92;99637.88;5034097;28;20029;-82
2023/03/24 00:56:02;;;;;;;29.92;28.30;;;;;;;17.33;56.76;99636.72;5034398;28;20033;-84
2023/03/24 00:58:28;;;;;;;28.73;27.33;;;;;;;17.34;57.15;99635.63;5032797;28;20044;-84
2023/03/24 01:00:55;;;;;;;29.80;28.33;;;;;;;17.30;56.71;99624.53;5033563;28;20033;-83
2023/03/24 01:03:26;;;;;;;28.73;27.30;;;;;;;17.28;56.87;99629.47;5032293;28;20030;-83
2023/03/24 01:05:53;;;;;;;28.50;27.00;;;;;;;17.27;57.42;99624.34;5034015;28;20037;-76
2023/03/24 01:08:19;;;;;;;27.95;26.55;;;;;;;17.28;56.77;99615.84;5033681;28;20038;-83
2023/03/24 01:10:49;;;;;;;27.48;26.13;;;;;;;17.29;56.75;99622.13;5033911;28;20040;-84
2023/03/24 01:13:16;;;;;;;29.75;28.27;;;;;;;17.28;57.14;99624.03;5033738;28;20037;-83
2023/03/24 01:15:43;;;;;;;28.27;26.85;;;;;;;17.28;57.09;99624.03;5048694;28;20034;-83
2023/03/24 01:18:11;;;;;;;29.65;28.00;;;;;;;17.28;56.94;99615.03;5033821;28;20033;-83
2023/03/24 01:20:39;;;;;;;29.07;27.53;;;;;;;17.24;56.96;99609.41;5032398;28;20382;-83
2023/03/24 01:23:06;;;;;;;27.70;26.20;;;;;;;17.23;57.39;99602.34;5033210;28;20033;-82
2023/03/24 01:25:37;;;;;;;29.85;28.35;;;;;;;17.22;57.47;99608.13;5032187;28;20021;-82
2023/03/24 01:28:03;;;;;;;28.77;27.23;;;;;;;17.23;57.16;99615.97;5033460;28;20029;-83
2023/03/24 01:30:30;;;;;;;27.80;26.40;;;;;;;17.22;57.17;99611.66;5049199;28;20036;-81
2023/03/24 01:32:56;;;;;;;27.83;26.38;;;;;;;17.23;57.05;99598.81;5033214;28;20099;-82
2023/03/24 01:35:24;;;;;;;29.30;27.80;;;;;;;17.27;57.14;99608.78;5032906;28;20458;-82
2023/03/24 01:37:50;;;;;;;27.02;25.70;;;;;;;17.27;57.03;99602.53;5033220;28;20029;-83
2023/03/24 01:40:23;;;;;;;27.83;26.42;;;;;;;17.24;57.33;99614.88;5033621;28;20507;-84
2023/03/24 01:42:50;;;;;;;27.52;26.13;;;;;;;17.25;56.94;99602.81;5033622;28;20025;-82
2023/03/24 01:45:43;;;;;;;29.23;27.77;;;;;;;17.23;57.06;99596.88;5033320;28;20041;-83
2023/03/24 01:48:17;;;;;;;28.77;27.27;;;;;;;17.21;56.77;99596.41;5033416;28;20151;-83
2023/03/24 01:50:51;;;;;;;27.05;25.65;;;;;;;17.23;57.19;99599.59;5033361;28;20065;-82
2023/03/24 01:53:17;;;;;;;27.67;26.17;;;;;;;17.25;56.79;99599.28;5033707;28;20029;-82
2023/03/24 01:55:46;;;;;;;30.17;28.33;;;;;;;17.23;56.92;99596.06;5032651;28;20438;-83
2023/03/24 01:58:12;;;;;;;28.02;26.52;;;;;;;17.23;57.32;99596.88;5033075;28;20126;-81
2023/03/24 02:00:38;;;;;;;27.80;26.40;;;;;;;17.24;56.99;99614.88;5031829;28;20490;-84
2023/03/24 02:03:17;;;;;;;30.38;28.63;;;;;;;17.18;57.00;99604.41;5033451;28;20034;-83
2023/03/24 02:05:45;;;;;;;27.17;25.88;;;;;;;17.20;57.12;99600.25;5036745;28;20030;-84
2023/03/24 02:08:20;;;;;;;29.52;27.83;;;;;;;17.20;57.35;99599.44;5037808;28;20043;-82
2023/03/24 02:10:46;;;;;;;29.95;28.48;;;;;;;17.20;57.55;99596.72;5041178;28;20025;-82
2023/03/24 02:13:12;;;;;;;29.38;27.83;;;;;;;17.19;57.34;99595.13;5037701;28;20033;-83
2023/03/24 02:16:07;;;;;;;26.70;25.40;;;;;;;17.19;57.37;99590.44;5037588;28;20040;-83
2023/03/24 02:18:33;;;;;;;27.42;25.98;;;;;;;17.20;57.12;99591.25;5035818;28;20478;-82
2023/03/24 02:21:30;;;;;;;29.95;28.48;;;;;;;17.15;57.48;99586.72;5036246;28;20032;-82
2023/03/24 02:24:01;;;;;;;26.52;25.13;;;;;;;17.13;57.59;99610.78;5036094;28;20029;-83
2023/03/24 02:27:03;;;;;;;26.95;25.55;;;;;;;17.12;57.30;99614.66;5035632;28;20033;-83
2023/03/24 02:29:40;;;;;;;27.60;26.30;;;;;;;17.11;57.30;99614.97;5036396;28;20034;-83
2023/03/24 02:32:30;;;;;;;28.45;26.92;;;;;;;17.11;57.75;99618.50;5036016;28;20029;-82
2023/03/24 02:35:01;;;;;;;27.27;25.85;;;;;;;17.07;57.51;99617.53;5036577;28;20033;-83
2023/03/24 02:37:47;;;;;;;27.95;26.55;;;;;;;17.01;57.72;99621.47;5035895;28;20029;-83
2023/03/24 02:40:15;;;;;;;29.85;28.25;;;;;;;17.07;57.52;99642.06;5035826;28;20075;-84
2023/03/24 02:42:53;;;;;;;26.83;25.35;;;;;;;17.00;57.65;99652.63;5035990;28;20535;-83
2023/03/24 02:45:31;;;;;;;27.45;26.05;;;;;;;17.00;57.62;99667.06;5035552;28;20128;-81
2023/03/24 02:48:22;;;;;;;28.00;26.50;;;;;;;17.06;57.39;99665.03;5036055;28;20052;-82
2023/03/24 02:50:50;;;;;;;28.20;26.80;;;;;;;17.05;57.56;99666.13;5035951;28;20068;-81
2023/03/24 02:53:32;;;;;;;27.40;25.90;;;;;;;17.06;57.71;99675.94;5035704;28;20108;-82
2023/03/24 02:56:10;;;;;;;27.30;25.90;;;;;;;17.11;57.29;99683.16;5035650;28;20029;-79
2023/03/24 02:58:45;;;;;;;29.40;27.90;;;;;;;17.14;57.40;99696.22;5036369;28;20025;-81
2023/03/24 03:01:19;;;;;;;28.73;27.23;;;;;;;17.06;57.39;99697.78;5035755;28;20532;-81
2023/03/24 03:03:51;;;;;;;27.60;26.25;;;;;;;17.09;57.72;99721.69;5035772;28;20025;-81
2023/03/24 03:06:24;;;;;;;29.80;28.20;;;;;;;17.06;57.58;99725.84;5035081;28;20111;-80
2023/03/24 03:08:51;;;;;;;27.70;26.38;;;;;;;17.07;57.50;99719.25;5035320;28;20465;-79
2023/03/24 03:11:17;;;;;;;30.27;28.65;;;;;;;17.08;57.49;99714.59;5034111;28;20034;-80
2023/03/24 03:13:49;;;;;;;28.33;26.83;;;;;;;17.08;57.43;99715.44;5035866;28;20032;-81
2023/03/24 03:16:24;;;;;;;29.08;27.40;;;;;;;17.11;57.15;99719.47;5034996;28;20056;-75
2023/03/24 03:18:54;;;;;;;27.00;25.48;;;;;;;17.11;57.38;99721.38;5035513;28;20413;-80
2023/03/24 03:21:24;;;;;;;28.05;26.65;;;;;;;17.08;56.90;99731.81;5035558;28;20143;-81
2023/03/24 03:23:52;;;;;;;28.02;26.55;;;;;;;17.10;57.36;99734.22;5034840;28;20445;-80
2023/03/24 03:26:22;;;;;;;27.50;25.88;;;;;;;17.10;57.13;99745.13;5035716;28;20037;-83
2023/03/24 03:28:56;;;;;;;28.73;27.13;;;;;;;17.10;56.89;99753.31;5034940;28;20022;-81
2023/03/24 03:31:33;;;;;;;26.90;25.42;;;;;;;17.09;57.15;99763.41;5033686;28;20434;-81
2023/03/24 03:34:08;;;;;;;27.27;25.98;;;;;;;17.06;57.00;99774.16;5035159;28;20029;-81
2023/03/24 03:36:47;;;;;;;26.67;25.27;;;;;;;16.98;57.01;99777.59;5034862;28;20029;-81
2023/03/24 03:39:26;;;;;;;30.02;28.42;;;;;;;17.00;57.00;99783.56;5035025;28;20021;-81
2023/03/24 03:41:52;;;;;;;27.38;25.98;;;;;;;16.99;56.98;99779.25;5034765;28;20079;-81
2023/03/24 03:44:18;;;;;;;28.38;26.77;;;;;;;16.99;57.11;99790.94;5034266;28;20120;-81
2023/03/24 03:46:44;;;;;;;28.23;26.70;;;;;;;16.99;57.12;99790.16;5035546;28;20042;-84
2023/03/24 03:49:09;;;;;;;29.35;27.75;;;;;;;16.99;56.82;99790.94;5034599;28;20389;-77
2023/03/24 03:51:35;;;;;;;26.42;25.13;;;;;;;16.96;57.11;99798.94;5034426;28;20034;-81
2023/03/24 03:54:13;;;;;;;28.17;26.55;;;;;;;16.94;56.89;99793.81;5034580;28;20036;-82
2023/03/24 03:56:39;;;;;;;26.35;25.05;;;;;;;16.97;56.91;99809.53;5034825;28;20065;-81
2023/03/24 03:59:06;;;;;;;29.45;27.92;;;;;;;16.99;56.72;99811.97;5034342;28;20041;-74
2023/03/24 04:01:35;;;;;;;27.00;25.63;;;;;;;16.95;56.69;99805.50;5034546;28;20040;-81
2023/03/24 04:04:25;;;;;;;27.90;26.50;;;;;;;16.93;56.92;99816.72;5034585;28;20029;-81
2023/03/24 04:07:16;;;;;;;27.65;26.17;;;;;;;16.89;57.22;99823.91;5034561;28;20500;-81
2023/03/24 04:09:45;;;;;;;27.13;25.80;;;;;;;16.91;57.23;99834.50;5034445;28;20081;-80
2023/03/24 04:12:17;;;;;;;;;;;;;;;16.83;56.88;99844.22;5034995;28;20040;-79
2023/03/24 04:15:04;;;;;;;25.55;24.25;;;;;;;16.80;56.95;99847.56;5033607;28;19920;-81
2023/03/24 04:17:55;;;;;;;27.17;25.52;;;;;;;16.80;57.17;99853.81;5034155;28;20484;-81
2023/03/24 04:20:37;;;;;;;28.45;26.67;;;;;;;16.78;57.10;99857.97;5033491;28;20032;-81
2023/03/24 04:23:18;;;;;;;27.25;25.75;;;;;;;16.77;56.86;99870.78;5049103;28;20099;-81
2023/03/24 04:25:57;;;;;;;25.75;24.42;;;;;;;16.78;56.79;99872.44;5034271;28;20061;-81
2023/03/24 04:28:40;;;;;;;;;;;;;;;16.75;57.23;99869.47;5034845;28;20083;-81
2023/03/24 04:31:25;;;;;;;26.10;24.70;;;;;;;16.73;56.92;99864.34;5034510;28;19912;-79
2023/03/24 04:34:02;;;;;;;26.23;24.73;;;;;;;16.72;57.36;99867.34;5034214;28;20025;-79
2023/03/24 04:36:41;;;;;;;25.85;24.30;;;;;;;16.71;57.05;99868.47;5033840;28;20021;-81
2023/03/24 04:39:11;;;;;;;25.80;24.30;;;;;;;16.72;57.03;99864.63;5033729;28;20531;-75
2023/03/24 04:41:36;;;;;;;28.83;27.13;;;;;;;16.72;57.28;99875.53;5033931;28;20040;-81
2023/03/24 04:44:02;;;;;;;26.50;25.10;;;;;;;16.72;57.18;99864.63;5033216;28;20029;-81
2023/03/24 04:46:28;;;;;;;27.73;26.23;;;;;;;16.72;57.18;99870.88;5034563;28;20033;-81
2023/03/24 04:48:54;;;;;;;27.30;25.35;;;;;;;16.72;56.94;99878.25;5034208;28;20060;-81
2023/03/24 04:51:20;;;;;;;27.42;25.92;;;;;;;16.71;57.11;99880.19;5033936;28;20485;-83
2023/03/24 04:53:46;;;;;;;26.10;24.80;;;;;;;16.69;56.78;99874.22;5033424;28;20124;-83
2023/03/24 04:56:29;;;;;;;26.35;25.05;;;;;;;16.65;56.98;99878.66;5033489;28;20040;-76
2023/03/24 04:58:57;;;;;;;27.20;25.70;;;;;;;16.63;56.83;99889.91;5033524;28;20079;-82
2023/03/24 05:01:24;;;;;;;27.38;25.95;;;;;;;16.61;56.89;99894.03;5033431;28;20068;-83
2023/03/24 05:03:50;;;;;;;25.88;24.38;;;;;;;16.61;56.71;99899.50;5033659;28;20029;-83
2023/03/24 05:06:16;;;;;;;27.58;26.00;;;;;;;16.57;56.98;99896.53;5032316;28;20108;-79
2023/03/24 05:08:42;;;;;;;26.58;25.17;;;;;;;16.58;57.14;99903.63;5032479;28;20465;-81
2023/03/24 05:11:07;;;;;;;25.25;23.95;;;;;;;16.57;57.00;99901.19;5033458;28;20164;-79
2023/03/24 05:13:33;;;;;;;26.40;25.00;;;;;;;16.58;56.54;99908.25;5033690;28;20036;-82
2023/03/24 05:15:58;;;;;;;28.27;26.67;;;;;;;16.58;56.90;99913.69;5033383;28;20040;-82
2023/03/24 05:18:23;;;;;;;28.40;26.65;;;;;;;16.56;56.85;99916.75;5033328;28;20393;-82
2023/03/24 05:20:49;;;;;;;26.83;25.33;;;;;;;16.56;56.43;99919.47;5033597;28;20038;-82
2023/03/24 05:23:15;;;;;;;29.15;27.48;;;;;;;16.56;56.57;99924.13;5033539;28;20034;-81
2023/03/24 05:25:41;;;;;;;26.55;25.10;;;;;;;16.56;56.72;99926.84;5033985;28;20117;-81
2023/03/24 05:28:06;;;;;;;26.20;24.77;;;;;;;16.54;56.66;99932.59;5033393;28;20452;-81
2023/03/24 05:30:32;;;;;;;26.88;25.13;;;;;;;16.51;56.79;99937.84;5033956;28;20072;-81
2023/03/24 05:32:58;;;;;;;26.20;24.90;;;;;;;16.50;56.95;99934.28;5033207;28;20041;-80
2023/03/24 05:35:23;;;;;;;28.13;26.40;;;;;;;16.50;56.79;99939.75;5033888;28;20521;-82
2023/03/24 05:37:49;;;;;;;26.95;25.55;;;;;;;16.48;56.80;99941.16;5033262;28;20048;-83
2023/03/24 05:40:15;;;;;;;25.35;24.08;;;;;;;16.47;56.51;99925.94;5036796;28;20047;-76
2023/03/24 05:42:41;;;;;;;28.38;25.73;;;;;;;16.45;56.86;99928.94;5038026;28;20402;-81
2023/03/24 05:45:07;;;;;;;25.65;24.25;;;;;;;16.44;56.51;99939.03;5036483;28;20038;-82
2023/03/24 05:47:32;;;;;;;27.25;25.75;;;;;;;16.40;56.76;99946.22;5037015;28;20061;-85
2023/03/24 05:49:58;;;;;;;26.73;24.88;;;;;;;16.42;56.63;99949.44;5037228;28;20030;-81
2023/03/24 05:52:23;;;;;;;28.40;26.05;;;;;;;16.40;56.52;99945.41;5036898;28;20072;-83
2023/03/24 05:54:51;;;;;;;27.25;25.80;;;;;;;16.41;56.64;99947.84;5019434;28;20030;-84
2023/03/24 05:57:17;;;;;;;26.75;25.33;;;;;;;16.39;56.72;99941.88;5037288;28;20033;-78
2023/03/24 05:59:42;;;;;;;26.30;25.00;;;;;;;16.37;56.71;99948.72;5036809;28;20033;-84
2023/03/24 06:02:08;;;;;;;26.20;24.55;;;;;;;16.35;56.47;99949.00;5036664;28;20379;-84
2023/03/24 06:04:34;;;;;;;25.67;24.27;;;;;;;16.34;56.45;99954.78;5036513;28;20042;-83
2023/03/24 06:07:01;;;;;;;25.92;24.58;;;;;;;16.32;56.78;99963.25;5036608;28;20037;-81
2023/03/24 06:09:31;;;;;;;28.50;27.00;;;;;;;16.33;56.51;99967.63;5035496;28;20067;-84
2023/03/24 06:12:00;;;;;;;24.92;23.55;;;;;;;16.30;56.59;99965.47;5036577;28;20029;-84
2023/03/24 06:14:25;;;;;;;26.27;24.88;;;;;;;16.30;56.78;99968.19;5035159;28;20381;-85
2023/03/24 06:16:50;;;;;;;26.27;24.10;;;;;;;16.27;56.55;99974.25;5036292;28;20500;-81
2023/03/24 06:19:16;;;;;;;26.33;24.88;;;;;;;16.27;56.05;99976.97;5036397;28;20104;-80
2023/03/24 06:21:43;;;;;;;26.35;24.50;;;;;;;16.25;56.81;99976.47;5036338;28;20112;-86
2023/03/24 06:24:09;;;;;;;25.05;23.85;;;;;;;16.22;56.34;99975.13;5036310;28;20041;-85
2023/03/24 06:26:35;;;;;;;26.80;25.15;;;;;;;16.24;56.71;99983.03;5036467;28;20168;-84
2023/03/24 06:29:00;;;;;;;25.52;24.17;;;;;;;16.23;56.08;99984.16;5036155;28;20033;-84
2023/03/24 06:31:28;;;;;;;25.98;24.63;;;;;;;16.22;56.68;99983.31;5018440;28;20037;-86
2023/03/24 06:33:54;;;;;;;25.92;24.42;;;;;;;16.20;56.55;99988.28;5035879;28;20104;-83
2023/03/24 06:36:19;;;;;;;26.98;25.38;;;;;;;16.20;56.47;99984.72;5036785;28;20113;-78
2023/03/24 06:38:45;;;;;;;26.45;25.05;;;;;;;16.18;56.43;100001.38;5035753;28;20042;-84
2023/03/24 06:41:10;;;;;;;27.05;25.35;;;;;;;16.16;56.12;99997.34;5035344;28;20033;-83
2023/03/24 06:43:36;;;;;;;26.35;24.90;;;;;;;16.16;56.31;100000.06;5036058;28;20480;-83
2023/03/24 06:46:02;;;;;;;25.40;24.10;;;;;;;16.16;56.53;100005.50;5051836;28;20033;-84
2023/03/24 06:48:27;;;;;;;27.92;26.42;;;;;;;16.15;56.27;100010.16;5035707;28;20127;-84
2023/03/24 06:50:54;;;;;;;25.83;24.25;;;;;;;16.16;56.34;100014.50;5035299;28;20041;-86
2023/03/24 06:53:20;;;;;;;26.55;24.95;;;;;;;16.13;56.20;100006.91;5051383;28;20116;-84
2023/03/24 06:55:49;;;;;;;27.02;25.58;;;;;;;16.14;56.42;100010.44;5034190;28;20055;-84
2023/03/24 06:58:16;;;;;;;25.05;23.45;;;;;;;16.10;56.44;100003.97;5034506;28;20034;-85
2023/03/24 07:00:43;;;;;;;27.33;25.90;;;;;;;16.12;56.36;100015.38;5034896;28;20103;-83
2023/03/24 07:03:08;;;;;;;25.40;24.20;;;;;;;16.10;56.27;100015.69;5035875;28;20037;-84
2023/03/24 07:05:38;;;;;;;27.88;25.13;;;;;;;16.07;55.98;100012.72;5035586;28;20041;-89
2023/03/24 07:08:04;;;;;;;24.27;23.08;;;;;;;16.06;55.96;100022.84;5035608;28;20489;-83
2023/03/24 07:10:30;;;;;;;26.10;24.70;;;;;;;16.03;56.06;100015.25;5035236;28;20039;-84
2023/03/24 07:12:56;;;;;;;25.35;23.73;;;;;;;16.06;56.01;100016.56;5034494;28;20465;-85
2023/03/24 07:15:22;;;;;;;24.90;23.38;;;;;;;16.06;56.34;100019.31;5035708;28;20033;-77
2023/03/24 07:17:48;;;;;;;23.52;22.42;;;;;;;16.04;56.22;100022.31;5035852;28;20025;-83
2023/03/24 07:20:14;;;;;;;23.55;22.35;;;;;;;16.05;55.94;100020.38;5036807;28;20041;-83
2023/03/24 07:22:40;;;;;;;28.88;27.08;;;;;;;16.04;56.02;100030.47;5035517;28;20040;-86
2023/03/24 07:25:06;;;;;;;25.95;23.98;;;;;;;16.00;56.24;100019.38;5035573;28;20373;-84
2023/03/24 07:27:32;;;;;;;25.33;23.92;;;;;;;16.00;56.23;100035.72;5034025;28;20429;-84
2023/03/24 07:29:59;;;;;;;25.63;24.05;;;;;;;16.04;55.96;100037.84;5035491;28;20029;-84
2023/03/24 07:32:27;;;;;;;25.23;23.70;;;;;;;16.01;55.88;100048.22;5035145;28;20037;-76
2023/03/24 07:34:53;;;;;;;26.50;25.00;;;;;;;16.02;55.79;100054.47;5035122;28;20092;-84
2023/03/24 07:37:18;;;;;;;24.20;22.83;;;;;;;16.01;56.25;100042.78;5034963;28;20477;-84
2023/03/24 07:39:44;;;;;;;28.42;25.83;;;;;;;16.01;55.89;100050.16;5034574;28;20424;-81
2023/03/24 07:42:09;;;;;;;25.02;23.52;;;;;;;15.97;56.12;100052.63;5033897;28;20075;-82
2023/03/24 07:44:35;;;;;;;25.63;23.98;;;;;;;15.98;55.78;100051.56;5034973;28;20119;-83
2023/03/24 07:47:00;;;;;;;24.63;22.95;;;;;;;16.01;56.02;100058.31;5034737;28;20034;-83
2023/03/24 07:49:26;;;;;;;26.05;24.45;;;;;;;16.02;56.06;100055.28;5036028;28;20465;-78
2023/03/24 07:51:51;;;;;;;23.80;22.60;;;;;;;16.00;55.66;100060.25;5035157;28;20033;-84
2023/03/24 07:54:18;;;;;;;24.42;23.10;;;;;;;15.99;55.79;100061.34;5035011;28;20041;-83
2023/03/24 07:56:43;;;;;;;25.67;24.25;;;;;;;15.99;55.94;100063.25;5034899;28;20029;-83
2023/03/24 07:59:08;;;;;;;23.95;22.60;;;;;;;15.97;55.58;100071.69;5033938;28;20033;-83
2023/03/24 08:01:35;;;;;;;23.80;22.50;;;;;;;15.96;55.93;100074.75;5032875;28;20034;-83
2023/03/24 08:04:03;;;;;;;24.23;23.02;;;;;;;15.95;56.12;100076.66;5034533;28;20117;-84
2023/03/24 08:06:28;;;;;;;27.50;25.90;;;;;;;15.95;55.73;100082.09;5033130;28;20464;-82
2023/03/24 08:08:54;;;;;;;26.13;24.02;;;;;;;15.95;55.84;100081.28;5034089;28;20526;-86
2023/03/24 08:11:20;;;;;;;24.23;23.02;;;;;;;15.95;55.63;100079.38;5034443;28;20033;-84
2023/03/24 08:13:46;;;;;;;24.40;22.75;;;;;;;15.99;55.91;100079.59;5034052;28;20097;-84
2023/03/24 08:16:11;;;;;;;26.25;24.80;;;;;;;15.99;56.25;100088.56;5034304;28;20094;-82
2023/03/24 08:18:37;;;;;;;27.00;25.40;;;;;;;15.98;55.89;100091.59;5034035;28;20068;-81
2023/03/24 08:21:03;;;;;;;27.10;25.40;;;;;;;15.96;55.77;100089.16;5034142;28;20033;-83
2023/03/24 08:23:29;;;;;;;25.05;23.70;;;;;;;15.97;55.76;100087.25;5034052;28;20068;-84
2023/03/24 08:25:54;;;;;;;24.92;23.65;;;;;;;15.97;56.03;100084.53;5034128;28;20474;-83
2023/03/24 08:28:20;;;;;;;26.08;24.10;;;;;;;15.99;55.64;100090.50;5034296;28;20034;-84
2023/03/24 08:30:46;;;;;;;28.15;26.33;;;;;;;16.00;55.97;100089.38;5034152;28;20373;-84
2023/03/24 08:33:14;;;;;;;27.17;25.17;;;;;;;15.99;55.64;100093.22;5034135;28;20025;-85
2023/03/24 08:35:40;;;;;;;26.45;24.75;;;;;;;15.98;56.05;100097.84;5034368;28;20061;-81
2023/03/24 08:38:08;;;;;;;25.55;23.80;;;;;;;15.95;55.56;100095.72;5034189;28;20032;-82
2023/03/24 08:40:35;;;;;;;24.60;23.25;;;;;;;15.95;55.77;100103.91;5033767;28;20078;-83
2023/03/24 08:43:04;;;;;;;25.98;23.80;;;;;;;15.95;55.99;100108.50;5033638;28;20105;-80
2023/03/24 08:45:31;;;;;;;25.58;24.13;;;;;;;15.92;56.17;100104.47;5033328;28;20033;-78
2023/03/24 08:48:00;;;;;;;26.20;24.90;;;;;;;15.94;55.69;100118.59;5033680;28;20049;-84
2023/03/24 08:50:29;;;;;;;24.50;23.30;;;;;;;15.96;55.84;100110.16;5033862;28;20044;-83
2023/03/24 08:52:55;;;;;;;25.50;24.10;;;;;;;15.97;55.86;100111.75;5033927;28;20029;-87
2023/03/24 08:55:21;;;;;;;24.42;23.00;;;;;;;15.93;55.70;100117.00;5034166;28;20037;-85
2023/03/24 08:57:47;;;;;;;26.33;24.90;;;;;;;15.92;56.09;100118.09;5049263;28;20104;-86
2023/03/24 09:00:14;;;;;;;25.05;23.48;;;;;;;15.93;55.82;100121.66;5033911;28;20029;-83
2023/03/24 09:02:53;;;;;;;27.42;25.83;;;;;;;15.89;55.82;100118.69;5033924;28;20033;-85
2023/03/24 09:05:19;;;;;;;;;;;;;;;15.89;55.88;100115.94;5035370;28;20040;-84
2023/03/24 09:07:46;;;;;;;26.17;24.58;;;;;;;15.96;55.77;100132.75;5033792;28;19916;-82
2023/03/24 09:10:13;;;;;;;24.50;23.17;;;;;;;15.91;55.79;100134.75;5034053;28;20485;-82
2023/03/24 09:12:39;;;;;;;27.90;26.15;;;;;;;15.88;56.16;100141.56;5036598;28;20029;-86
2023/03/24 09:15:07;;;;;;;24.80;23.40;;;;;;;15.92;56.10;100133.63;5039148;28;20489;-85
2023/03/24 09:17:33;;;;;;;24.10;22.80;;;;;;;15.96;56.03;100138.19;5039895;28;20044;-80
2023/03/24 09:19:58;;;;;;;26.38;25.02;;;;;;;15.99;55.93;100143.06;5040432;28;20069;-84
2023/03/24 09:22:24;;;;;;;25.95;24.58;;;;;;;16.02;55.64;100150.63;5038541;28;20073;-88
2023/03/24 09:24:49;;;;;;;29.00;26.80;;;;;;;16.05;55.77;100151.16;5039108;28;20473;-84
2023/03/24 09:27:15;;;;;;;25.27;24.05;;;;;;;16.04;55.78;100150.34;5045271;28;20041;-84
2023/03/24 09:29:41;;;;;;;27.38;25.63;;;;;;;16.05;55.77;100156.59;5051399;28;20112;-84
2023/03/24 09:32:06;;;;;;;26.88;24.75;;;;;;;16.07;56.09;100149.75;5054945;28;20057;-84
2023/03/24 09:34:32;;;;;;;25.60;24.20;;;;;;;16.05;55.72;100153.88;5052113;28;20034;-84
2023/03/24 09:36:59;;;;;;;27.40;26.00;;;;;;;16.09;56.04;100152.19;5055387;28;20057;-85
2023/03/24 09:39:24;;;;;;;26.05;24.63;;;;;;;16.09;55.48;100158.44;5052975;28;20083;-80
2023/03/24 09:41:50;;;;;;;26.35;24.73;;;;;;;16.11;55.92;100145.34;5050930;28;20033;-84
2023/03/24 09:44:38;;;;;;;26.63;25.20;;;;;;;16.13;55.67;100153.25;5042632;28;20065;-82
2023/03/24 09:47:29;;;;;;;24.55;22.95;;;;;;;16.14;55.68;100158.38;5040221;28;20036;-77
2023/03/24 09:49:59;;;;;;;24.63;22.67;;;;;;;16.14;55.82;100144.75;5038682;28;20080;-83
2023/03/24 09:52:33;;;;;;;25.50;24.10;;;;;;;16.14;56.14;100149.41;5038995;28;20041;-83
2023/03/24 09:55:01;;;;;;;26.73;25.10;;;;;;;16.15;55.99;100148.28;5054904;28;20025;-83
2023/03/24 09:57:42;;;;;;;27.75;25.80;;;;;;;16.17;55.74;100146.88;5047001;28;20418;-76
2023/03/24 10:00:17;;;;;;;25.45;23.88;;;;;;;16.19;56.07;100146.59;5052222;28;20030;-82
2023/03/24 10:02:43;;;;;;;27.05;25.08;;;;;;;16.20;56.14;100148.22;5053374;28;20021;-81
2023/03/24 10:05:23;;;;;;;25.80;24.30;;;;;;;16.21;55.95;100156.09;5056984;28;20033;-81
2023/03/24 10:07:58;;;;;;;27.70;25.95;;;;;;;16.23;56.15;100155.81;5049549;28;20069;-82
2023/03/24 10:10:47;;;;;;;24.98;23.60;;;;;;;16.22;55.76;100148.72;5046663;28;20013;-85
2023/03/24 10:13:19;;;;;;;;;;;;;;;16.20;55.82;100149.03;5041603;28;20029;-84
2023/03/24 10:16:05;;;;;;;27.67;25.27;;;;;;;16.23;55.98;100153.09;5039596;28;19917;-81
2023/03/24 10:18:51;;;;;;;24.77;23.40;;;;;;;16.23;55.79;100144.91;5038696;28;20029;-81
2023/03/24 10:21:21;;;;;;;24.95;23.63;;;;;;;16.23;56.19;100140.28;5041633;28;20024;-80
2023/03/24 10:24:17;;;;;;;25.45;24.02;;;;;;;16.27;56.18;100136.94;5039669;28;20063;-83
2023/03/24 10:26:51;;;;;;;26.90;25.27;;;;;;;16.30;56.07;100130.91;5038546;28;20025;-81
2023/03/24 10:29:21;;;;;;;26.15;24.75;;;;;;;16.32;55.90;100145.03;5037326;28;20398;-79
2023/03/24 10:31:51;;;;;;;28.65;27.05;;;;;;;16.30;56.12;100137.16;5037539;28;20025;-81
2023/03/24 10:34:18;;;;;;;25.73;23.80;;;;;;;16.32;56.29;100147.78;5036066;28;20037;-79
2023/03/24 10:36:43;;;;;;;27.92;25.92;;;;;;;16.31;56.21;100149.69;5036380;28;20029;-82
2023/03/24 10:39:14;;;;;;;25.10;23.55;;;;;;;16.31;56.52;100155.16;5036374;28;20098;-81
2023/03/24 10:41:41;;;;;;;27.17;25.65;;;;;;;16.37;56.02;100151.22;5036596;28;20086;-80
2023/03/24 10:44:08;;;;;;;25.75;24.35;;;;;;;16.39;56.21;100159.13;5051843;28;20034;-82
2023/03/24 10:46:41;;;;;;;28.15;26.15;;;;;;;16.41;55.93;100149.53;5036854;28;20041;-80
2023/03/24 10:49:11;;;;;;;25.08;23.83;;;;;;;16.43;56.18;100155.50;5036266;28;20474;-81
2023/03/24 10:51:38;;;;;;;25.63;24.23;;;;;;;16.47;56.01;100161.16;5035748;28;20038;-81
2023/03/24 10:54:24;;;;;;;25.63;24.15;;;;;;;16.44;55.98;100148.13;5035808;28;20041;-83
2023/03/24 10:57:04;;;;;;;27.58;25.85;;;;;;;16.48;56.14;100153.78;5035660;28;20040;-80
2023/03/24 10:59:59;;;;;;;27.42;25.90;;;;;;;16.51;56.16;100142.31;5036682;28;20033;-82
2023/03/24 11:02:32;;;;;;;26.15;24.65;;;;;;;16.55;55.87;100148.78;5036230;28;20474;-77
2023/03/24 11:05:13;;;;;;;28.67;26.73;;;;;;;16.54;55.83;100145.25;5037915;28;20060;-82
2023/03/24 11:07:41;;;;;;;28.65;27.13;;;;;;;16.55;55.58;100144.13;5036485;28;20469;-81
2023/03/24 11:10:09;;;;;;;27.50;26.10;;;;;;;16.58;55.42;100151.75;5036147;28;20091;-80
2023/03/24 11:12:40;;;;;;;26.50;24.98;;;;;;;16.61;55.33;100148.41;5037370;28;20044;-80
2023/03/24 11:15:16;;;;;;;26.83;25.17;;;;;;;16.64;55.75;100153.25;5035546;28;20040;-80
2023/03/24 11:17:42;;;;;;;26.63;24.63;;;;;;;16.65;55.63;100149.41;5035954;28;20040;-77
2023/03/24 11:20:32;;;;;;;26.08;24.35;;;;;;;16.65;55.58;100154.06;5036293;28;20026;-80
2023/03/24 11:23:02;;;;;;;26.67;25.02;;;;;;;16.64;55.63;100150.53;5036065;28;20351;-80
2023/03/24 11:25:31;;;;;;;24.60;23.30;;;;;;;16.65;55.88;100159.53;5035988;28;20041;-78
2023/03/24 11:28:04;;;;;;;25.67;24.20;;;;;;;16.68;56.10;100153.47;5035506;28;20039;-79